createdAt,value
2019-04-16T00:00:17.897Z,4.60
2019-04-16T00:02:51.191Z,4.60
2019-04-16T00:05:27.435Z,4.50
2019-04-16T00:07:58.708Z,4.40
2019-04-16T00:10:31.838Z,4.30
2019-04-16T00:13:04.782Z,4.30
2019-04-16T00:15:33.634Z,4.20
2019-04-16T00:18:02.509Z,4.20
2019-04-16T00:20:36.882Z,4.20
2019-04-16T00:23:11.360Z,4.20
2019-04-16T00:25:40.334Z,4.20
2019-04-16T00:28:09.190Z,4.10
2019-04-16T00:30:37.993Z,4.10
2019-04-16T00:33:07.584Z,4.10
2019-04-16T00:35:37.222Z,4.00
2019-04-16T00:38:07.762Z,3.90
2019-04-16T00:40:36.693Z,3.90
2019-04-16T00:43:05.865Z,3.80
2019-04-16T00:45:34.782Z,3.80
2019-04-16T00:48:03.990Z,3.90
2019-04-16T00:50:32.836Z,3.80
2019-04-16T00:53:07.810Z,3.70
2019-04-16T00:55:34.068Z,3.60
2019-04-16T00:58:02.957Z,3.60
2019-04-16T01:00:31.830Z,3.60
2019-04-16T01:03:01.639Z,3.50
2019-04-16T01:05:35.080Z,3.40
2019-04-16T01:08:01.150Z,3.40
2019-04-16T01:10:29.978Z,3.40
2019-04-16T01:12:58.760Z,3.30
2019-04-16T01:15:29.181Z,3.30
2019-04-16T01:17:57.828Z,3.30
2019-04-16T01:20:26.705Z,3.30
2019-04-16T01:22:55.510Z,3.30
2019-04-16T01:25:24.306Z,3.30
2019-04-16T01:28:01.155Z,3.20
2019-04-16T01:30:43.468Z,3.10
2019-04-16T01:33:14.680Z,3.10
2019-04-16T01:35:51.722Z,2.90
2019-04-16T01:38:27.622Z,2.90
2019-04-16T01:40:55.523Z,2.80
2019-04-16T01:43:25.784Z,2.80
2019-04-16T01:45:54.582Z,2.70
2019-04-16T01:48:23.388Z,2.70
2019-04-16T01:50:52.249Z,2.60
2019-04-16T01:53:21.748Z,2.60
2019-04-16T01:55:50.553Z,2.50
2019-04-16T01:58:19.298Z,2.50
2019-04-16T02:00:48.060Z,2.60
2019-04-16T02:03:17.760Z,2.60
2019-04-16T02:05:47.314Z,2.60
2019-04-16T02:08:16.167Z,2.50
2019-04-16T02:10:44.969Z,2.50
2019-04-16T02:13:14.997Z,2.50
2019-04-16T02:15:44.443Z,2.50
2019-04-16T02:18:12.941Z,2.50
2019-04-16T02:20:41.720Z,2.50
2019-04-16T02:23:10.524Z,2.50
2019-04-16T02:25:39.406Z,2.40
2019-04-16T02:28:08.183Z,2.40
2019-04-16T02:30:39.013Z,2.40
2019-04-16T02:33:07.770Z,2.40
2019-04-16T02:35:36.692Z,2.40
2019-04-16T02:38:10.501Z,2.40
2019-04-16T02:40:35.796Z,2.30
2019-04-16T02:43:06.993Z,2.40
2019-04-16T02:45:35.151Z,2.40
2019-04-16T02:48:03.944Z,2.50
2019-04-16T02:50:43.240Z,2.50
2019-04-16T02:53:29.790Z,2.40
2019-04-16T02:56:18.987Z,2.30
2019-04-16T02:58:48.422Z,2.10
2019-04-16T03:01:37.451Z,2.00
2019-04-16T03:04:08.218Z,2.00
2019-04-16T03:06:37.203Z,2.00
2019-04-16T03:09:09.863Z,2.10
2019-04-16T03:11:40.768Z,2.10
2019-04-16T03:14:09.669Z,2.10
2019-04-16T03:16:40.207Z,2.10
2019-04-16T03:19:26.824Z,2.10
2019-04-16T03:21:55.911Z,2.10
2019-04-16T03:24:26.113Z,2.20
2019-04-16T03:26:54.997Z,2.10
2019-04-16T03:29:23.852Z,2.10
2019-04-16T03:31:57.646Z,2.10
2019-04-16T03:34:23.386Z,2.10
2019-04-16T03:36:52.451Z,2.00
2019-04-16T03:39:21.223Z,1.90
2019-04-16T03:41:49.716Z,1.80
2019-04-16T03:44:18.595Z,1.80
2019-04-16T03:46:47.743Z,1.80
2019-04-16T03:49:16.648Z,1.80
2019-04-16T03:51:45.511Z,1.80
2019-04-16T03:54:14.289Z,1.70
2019-04-16T03:56:42.774Z,1.60
2019-04-16T03:59:12.153Z,1.60
2019-04-16T04:01:45.556Z,1.70
2019-04-16T04:04:12.019Z,1.80
2019-04-16T04:06:40.805Z,1.80
2019-04-16T04:09:09.599Z,1.80
2019-04-16T04:11:40.887Z,1.70
2019-04-16T04:14:08.917Z,1.60
2019-04-16T04:16:37.742Z,1.50
2019-04-16T04:19:06.554Z,1.50
2019-04-16T04:21:35.284Z,1.50
2019-04-16T04:24:04.253Z,1.50
2019-04-16T04:26:32.832Z,1.40
2019-04-16T04:29:01.350Z,1.40
2019-04-16T04:31:32.444Z,1.40
2019-04-16T04:34:00.389Z,1.50
2019-04-16T04:36:29.229Z,1.50
2019-04-16T04:38:57.754Z,1.50
2019-04-16T04:41:26.553Z,1.50
2019-04-16T04:44:10.738Z,1.50
2019-04-16T04:46:51.054Z,1.50
2019-04-16T04:49:22.064Z,1.50
2019-04-16T04:52:49.522Z,1.60
2019-04-16T04:54:33.647Z,1.60
2019-04-16T04:57:03.871Z,1.70
2019-04-16T04:59:36.890Z,1.80
2019-04-16T05:14:03.200Z,2.10
2019-04-16T05:16:27.982Z,2.10
2019-04-16T05:18:56.885Z,2.10
2019-04-16T05:21:25.916Z,2.10
2019-04-16T05:23:57.410Z,2.20
2019-04-16T05:26:26.605Z,2.30
2019-04-16T05:29:28.247Z,2.30
2019-04-16T05:34:17.735Z,2.40
2019-04-16T05:35:12.100Z,2.50
2019-04-16T05:37:41.040Z,2.60
2019-04-16T05:40:10.898Z,2.70
2019-04-16T05:43:41.958Z,3.20
2019-04-16T05:46:26.129Z,5.90
2019-04-16T05:48:54.918Z,9.80
2019-04-16T05:51:23.941Z,13.30
2019-04-16T05:54:03.082Z,14.90
2019-04-16T05:56:33.456Z,16.30
2019-04-16T05:59:02.563Z,17.60
2019-04-16T06:01:33.596Z,18.30
2019-04-16T06:04:05.480Z,18.90
2019-04-16T06:06:49.254Z,19.90
2019-04-16T06:09:18.115Z,20.90
2019-04-16T06:11:47.006Z,21.90
2019-04-16T06:14:25.520Z,22.40
2019-04-16T06:17:10.637Z,22.50
2019-04-16T06:19:46.829Z,22.50
2019-04-16T06:25:40.948Z,22.70
2019-04-16T06:28:29.100Z,22.90
2019-04-16T06:31:14.077Z,22.30
2019-04-16T06:34:16.072Z,22.50
2019-04-16T06:36:31.054Z,22.50
2019-04-16T06:39:16.427Z,22.10
2019-04-16T06:41:48.568Z,22.00
2019-04-16T06:44:19.184Z,22.10
2019-04-16T06:47:10.831Z,22.10
2019-04-16T06:49:50.968Z,22.40
2019-04-16T06:52:37.875Z,22.50
2019-04-16T06:55:11.975Z,22.30
2019-04-16T06:57:44.716Z,21.90
2019-04-16T07:00:15.190Z,21.30
2019-04-16T07:06:37.382Z,20.20
2019-04-16T07:15:13.401Z,21.00
2019-04-16T07:17:52.805Z,21.20
2019-04-16T07:20:21.773Z,21.00
2019-04-16T07:22:52.724Z,20.80
2019-04-16T07:29:03.622Z,20.70
2019-04-16T07:31:52.312Z,20.50
2019-04-16T07:34:32.313Z,20.90
2019-04-16T07:37:05.284Z,21.10
2019-04-16T07:39:51.822Z,20.70
2019-04-16T07:42:22.455Z,20.50
2019-04-16T07:45:13.065Z,19.90
2019-04-16T07:54:12.716Z,17.90
2019-04-16T07:56:42.867Z,17.10
2019-04-16T07:59:11.561Z,17.10
2019-04-16T08:01:40.093Z,17.00
2019-04-16T08:04:08.784Z,16.90
2019-04-16T08:06:37.225Z,16.60
2019-04-16T08:09:08.112Z,16.20
2019-04-16T08:11:36.761Z,16.00
2019-04-16T08:14:08.936Z,15.80
2019-04-16T08:16:46.545Z,16.00
2019-04-16T08:19:06.561Z,16.10
2019-04-16T08:21:35.415Z,16.10
2019-04-16T08:24:09.201Z,16.30
2019-04-16T08:26:37.793Z,16.60
2019-04-16T08:29:06.685Z,16.00
2019-04-16T08:31:37.169Z,15.90
2019-04-16T08:34:05.951Z,16.20
2019-04-16T08:36:35.138Z,16.20
2019-04-16T08:39:06.473Z,16.30
2019-04-16T08:41:35.944Z,16.50
2019-04-16T08:44:04.859Z,16.50
2019-04-16T08:46:33.416Z,16.80
2019-04-16T08:49:02.585Z,16.90
2019-04-16T08:51:34.359Z,16.20
2019-04-16T08:54:01.401Z,16.00
2019-04-16T08:56:30.278Z,16.10
2019-04-16T08:59:01.314Z,16.50
2019-04-16T09:01:31.340Z,16.60
2019-04-16T09:04:02.727Z,16.50
2019-04-16T09:06:30.415Z,17.00
2019-04-16T09:09:12.408Z,17.00
2019-04-16T09:11:35.344Z,17.50
2019-04-16T09:14:06.183Z,17.70
2019-04-16T09:16:39.442Z,17.70
2019-04-16T09:19:09.965Z,17.90
2019-04-16T09:21:43.299Z,17.80
2019-04-16T09:24:27.203Z,17.80
2019-04-16T09:27:15.292Z,17.50
2019-04-16T09:29:54.241Z,17.20
2019-04-16T09:32:28.197Z,16.50
2019-04-16T09:35:18.414Z,16.60
2019-04-16T09:38:02.687Z,16.70
2019-04-16T09:40:35.823Z,16.50
2019-04-16T09:43:16.718Z,16.40
2019-04-16T09:45:37.289Z,17.00
2019-04-16T09:48:06.791Z,17.40
2019-04-16T09:50:35.348Z,17.40
2019-04-16T09:53:04.180Z,17.40
2019-04-16T09:55:33.043Z,17.50
2019-04-16T09:58:06.240Z,17.60
2019-04-16T10:00:38.190Z,17.90
2019-04-16T10:03:11.024Z,17.90
2019-04-16T10:05:39.866Z,17.70
2019-04-16T10:08:09.639Z,17.40
2019-04-16T10:10:38.689Z,17.60
2019-04-16T10:13:07.690Z,17.60
2019-04-16T10:15:36.658Z,17.40
2019-04-16T10:18:05.610Z,17.40
2019-04-16T10:20:34.407Z,17.40
2019-04-16T10:23:04.917Z,17.50
2019-04-16T10:25:33.889Z,17.80
2019-04-16T10:28:04.954Z,17.80
2019-04-16T10:30:36.271Z,17.70
2019-04-16T10:33:05.275Z,17.90
2019-04-16T10:35:34.241Z,18.20
2019-04-16T10:38:04.843Z,18.60
2019-04-16T10:40:35.151Z,18.60
2019-04-16T10:43:05.857Z,18.60
2019-04-16T10:45:42.149Z,18.40
2019-04-16T10:48:48.042Z,18.10
2019-04-16T11:07:11.216Z,18.20
2019-04-16T11:13:24.683Z,18.30
2019-04-16T11:19:32.198Z,19.10
2019-04-16T11:22:04.108Z,19.10
2019-04-16T11:24:31.449Z,19.20
2019-04-16T11:26:59.878Z,19.60
2019-04-16T11:29:28.574Z,19.50
2019-04-16T11:31:57.442Z,19.30
2019-04-16T11:34:26.205Z,19.20
2019-04-16T11:36:58.191Z,19.00
2019-04-16T11:39:25.326Z,19.30
2019-04-16T11:41:53.832Z,19.60
2019-04-16T11:44:22.560Z,19.40
2019-04-16T11:46:51.380Z,19.30
2019-04-16T11:49:21.382Z,19.50
2019-04-16T11:51:50.179Z,19.40
2019-04-16T11:54:18.740Z,19.30
2019-04-16T11:56:47.176Z,19.50
2019-04-16T11:59:15.857Z,19.60
2019-04-16T12:01:48.704Z,19.80
2019-04-16T12:04:19.074Z,20.20
2019-04-16T12:06:49.183Z,20.70
2019-04-16T12:09:25.146Z,20.90
2019-04-16T12:11:58.267Z,20.40
2019-04-16T12:14:46.736Z,20.10
2019-04-16T12:17:17.069Z,20.10
2019-04-16T12:19:47.575Z,20.30
2019-04-16T12:22:26.979Z,19.80
2019-04-16T12:25:03.174Z,19.60
2019-04-16T12:27:36.522Z,19.60
2019-04-16T12:30:12.865Z,19.60
2019-04-16T12:32:45.863Z,19.50
2019-04-16T12:35:34.739Z,20.00
2019-04-16T12:38:09.180Z,20.50
2019-04-16T12:40:42.338Z,20.60
2019-04-16T12:43:15.751Z,20.50
2019-04-16T12:46:02.528Z,20.60
2019-04-16T12:48:50.572Z,20.50
2019-04-16T12:51:21.016Z,21.00
2019-04-16T12:53:54.238Z,21.00
2019-04-16T12:56:41.274Z,20.80
2019-04-16T12:59:11.732Z,20.90
2019-04-16T13:01:44.753Z,21.00
2019-04-16T13:04:14.834Z,20.90
2019-04-16T13:06:44.887Z,21.10
2019-04-16T13:09:15.047Z,21.00
2019-04-16T13:11:45.585Z,20.70
2019-04-16T13:14:31.679Z,20.60
2019-04-16T13:17:02.014Z,20.70
2019-04-16T13:19:32.359Z,20.80
2019-04-16T13:22:01.202Z,20.70
2019-04-16T13:24:33.966Z,20.70
2019-04-16T13:27:10.000Z,20.80
2019-04-16T13:29:38.679Z,21.10
2019-04-16T13:32:07.548Z,21.30
2019-04-16T13:34:36.337Z,21.30
2019-04-16T13:37:05.194Z,21.10
2019-04-16T13:39:52.219Z,21.20
2019-04-16T13:42:20.946Z,21.30
2019-04-16T13:44:51.383Z,21.40
2019-04-16T13:47:20.104Z,21.50
2019-04-16T13:50:03.433Z,21.50
2019-04-16T13:52:32.281Z,21.20
2019-04-16T13:55:10.110Z,21.10
2019-04-16T13:57:43.323Z,21.00
2019-04-16T14:00:28.769Z,20.70
2019-04-16T14:02:59.123Z,20.70
2019-04-16T14:05:27.812Z,20.60
2019-04-16T14:07:56.504Z,20.60
2019-04-16T14:10:25.207Z,20.60
2019-04-16T14:12:53.624Z,20.80
2019-04-16T14:15:31.838Z,20.50
2019-04-16T14:17:59.106Z,20.10
2019-04-16T14:20:24.678Z,20.10
2019-04-16T14:22:54.288Z,20.30
2019-04-16T14:25:24.968Z,20.40
2019-04-16T14:27:55.607Z,20.80
2019-04-16T14:30:25.903Z,21.20
2019-04-16T14:32:54.723Z,21.30
2019-04-16T14:35:33.424Z,21.30
2019-04-16T14:37:58.160Z,20.80
2019-04-16T14:40:27.044Z,20.50
2019-04-16T14:42:57.712Z,20.30
2019-04-16T14:45:28.398Z,20.30
2019-04-16T14:47:57.758Z,20.20
2019-04-16T14:50:26.659Z,20.30
2019-04-16T14:52:55.243Z,20.60
2019-04-16T14:55:42.239Z,20.90
2019-04-16T14:58:16.181Z,21.00
2019-04-16T15:00:54.412Z,21.00
2019-04-16T15:03:27.265Z,20.90
2019-04-16T15:06:03.860Z,20.90
2019-04-16T15:08:49.142Z,20.70
2019-04-16T15:11:19.634Z,20.40
2019-04-16T15:13:50.050Z,20.20
2019-04-16T15:16:22.160Z,20.10
2019-04-16T15:19:10.113Z,20.10
2019-04-16T15:21:56.060Z,20.10
2019-04-16T15:24:27.584Z,20.20
2019-04-16T15:26:58.048Z,20.10
2019-04-16T15:29:31.219Z,20.00
2019-04-16T15:32:05.919Z,19.80
2019-04-16T15:34:41.941Z,19.70
2019-04-16T15:37:13.681Z,19.50
2019-04-16T15:39:49.844Z,19.20
2019-04-16T15:42:20.188Z,19.00
2019-04-16T15:44:56.163Z,18.70
2019-04-16T15:47:31.789Z,18.70
2019-04-16T15:50:00.464Z,18.70
2019-04-16T15:52:46.500Z,18.60
2019-04-16T15:55:19.808Z,18.60
2019-04-16T15:57:53.076Z,18.70
2019-04-16T16:00:32.487Z,18.60
2019-04-16T16:06:25.244Z,18.40
2019-04-16T16:09:03.786Z,18.30
2019-04-16T16:11:33.599Z,18.20
2019-04-16T16:14:02.481Z,18.00
2019-04-16T16:16:41.735Z,17.90
2019-04-16T16:19:01.787Z,17.80
2019-04-16T16:21:30.327Z,17.60
2019-04-16T16:23:59.137Z,17.50
2019-04-16T16:26:27.961Z,17.40
2019-04-16T16:28:56.725Z,17.30
2019-04-16T16:31:25.474Z,17.20
2019-04-16T16:33:54.084Z,17.10
2019-04-16T16:36:22.811Z,17.10
2019-04-16T16:38:51.497Z,17.10
2019-04-16T16:41:20.303Z,17.10
2019-04-16T16:43:49.109Z,17.10
2019-04-16T16:46:21.972Z,17.20
2019-04-16T16:48:52.627Z,17.10
2019-04-16T16:51:23.071Z,17.10
2019-04-16T16:54:01.890Z,17.00
2019-04-16T16:56:46.948Z,16.90
2019-04-16T16:59:35.569Z,16.80
2019-04-16T17:02:20.861Z,16.70
2019-04-16T17:04:52.973Z,16.50
2019-04-16T17:07:21.859Z,16.30
2019-04-16T17:09:50.490Z,16.10
2019-04-16T17:12:19.115Z,15.90
2019-04-16T17:14:48.003Z,15.80
2019-04-16T17:17:16.965Z,15.60
2019-04-16T17:19:50.496Z,15.50
2019-04-16T17:22:18.177Z,15.30
2019-04-16T17:24:49.704Z,15.20
2019-04-16T17:27:18.696Z,15.20
2019-04-16T17:29:49.729Z,15.10
2019-04-16T17:32:18.102Z,15.10
2019-04-16T17:34:46.929Z,15.00
2019-04-16T17:37:15.830Z,14.90
2019-04-16T17:39:49.000Z,14.80
2019-04-16T17:42:21.929Z,14.70
2019-04-16T17:45:10.168Z,14.70
2019-04-16T17:47:57.424Z,14.60
2019-04-16T17:50:39.299Z,14.60
2019-04-16T17:53:24.635Z,14.60
2019-04-16T17:56:06.756Z,14.50
2019-04-16T17:58:37.189Z,14.50
2019-04-16T18:01:16.541Z,14.40
2019-04-16T18:04:01.857Z,14.30
2019-04-16T18:06:34.811Z,14.30
2019-04-16T18:09:18.710Z,14.10
2019-04-16T18:12:03.696Z,14.10
2019-04-16T18:14:50.350Z,14.00
2019-04-16T18:17:21.033Z,13.90
2019-04-16T18:19:54.609Z,13.80
2019-04-16T18:22:41.925Z,13.80
2019-04-16T18:25:23.375Z,13.70
2019-04-16T18:28:04.248Z,13.60
2019-04-16T18:30:41.034Z,13.50
2019-04-16T18:33:23.233Z,13.40
2019-04-16T18:35:53.666Z,13.30
2019-04-16T18:38:36.129Z,13.10
2019-04-16T18:41:09.346Z,12.90
2019-04-16T18:43:39.791Z,12.80
2019-04-16T18:46:30.081Z,12.70
2019-04-16T18:48:59.737Z,12.60
2019-04-16T18:51:32.935Z,12.60
2019-04-16T18:53:59.082Z,12.60
2019-04-16T18:56:27.958Z,12.50
2019-04-16T18:58:56.801Z,12.50
2019-04-16T19:01:29.682Z,12.40
2019-04-16T19:03:57.953Z,12.40
2019-04-16T19:06:26.552Z,12.30
2019-04-16T19:08:55.537Z,12.30
2019-04-16T19:11:24.377Z,12.20
2019-04-16T19:13:53.690Z,12.30
2019-04-16T19:16:22.522Z,12.30
2019-04-16T19:18:51.335Z,12.20
2019-04-16T19:21:19.889Z,12.20
2019-04-16T19:23:48.727Z,12.20
2019-04-16T19:26:17.274Z,12.10
2019-04-16T19:28:46.599Z,12.00
2019-04-16T19:31:15.466Z,11.90
2019-04-16T19:33:44.098Z,11.70
2019-04-16T19:36:13.110Z,11.70
2019-04-16T19:38:41.970Z,11.60
2019-04-16T19:41:10.854Z,11.60
2019-04-16T19:43:39.660Z,11.60
2019-04-16T19:46:08.408Z,11.60
2019-04-16T19:48:37.142Z,11.60
2019-04-16T19:51:07.229Z,11.60
2019-04-16T19:53:36.337Z,11.60
2019-04-16T19:56:05.161Z,11.60
2019-04-16T19:58:33.600Z,11.60
2019-04-16T20:01:02.171Z,11.70
2019-04-16T20:03:31.342Z,11.60
2019-04-16T20:06:00.139Z,11.50
2019-04-16T20:08:34.372Z,11.40
2019-04-16T20:10:59.073Z,11.40
2019-04-16T20:13:28.944Z,11.30
2019-04-16T20:15:59.987Z,11.20
2019-04-16T20:18:49.978Z,11.10
2019-04-16T20:21:05.022Z,11.10
2019-04-16T20:23:33.814Z,11.00
2019-04-16T20:26:02.677Z,11.00
2019-04-16T20:28:31.483Z,11.10
2019-04-16T20:31:03.237Z,11.00
2019-04-16T20:33:30.683Z,11.00
2019-04-16T20:35:59.429Z,11.00
2019-04-16T20:38:29.375Z,10.90
2019-04-16T20:40:58.611Z,10.90
2019-04-16T20:43:27.368Z,10.90
2019-04-16T20:45:56.100Z,10.80
2019-04-16T20:48:24.892Z,10.80
2019-04-16T20:50:58.173Z,10.70
2019-04-16T20:53:24.117Z,10.60
2019-04-16T20:55:52.846Z,10.60
2019-04-16T20:58:21.366Z,10.60
2019-04-16T21:00:51.729Z,10.70
2019-04-16T21:03:22.740Z,10.80
2019-04-16T21:05:57.887Z,10.60
2019-04-16T21:08:24.156Z,10.60
2019-04-16T21:10:51.548Z,10.60
2019-04-16T21:13:20.307Z,10.60
2019-04-16T21:15:49.038Z,10.70
2019-04-16T21:18:17.768Z,10.70
2019-04-16T21:20:50.807Z,10.70
2019-04-16T21:23:17.023Z,10.70
2019-04-16T21:25:45.926Z,10.70
2019-04-16T21:28:23.080Z,10.70
2019-04-16T21:30:53.452Z,10.70
2019-04-16T21:33:24.016Z,10.80
2019-04-16T21:35:54.167Z,10.70
2019-04-16T21:38:27.418Z,10.70
2019-04-16T21:40:57.288Z,10.70
2019-04-16T21:43:26.571Z,10.70
2019-04-16T21:45:55.384Z,10.70
2019-04-16T21:48:27.092Z,10.60
2019-04-16T21:50:55.393Z,10.50
2019-04-16T21:53:24.634Z,10.50
2019-04-16T21:55:54.373Z,10.50
2019-04-16T21:58:23.211Z,10.60
2019-04-16T22:00:54.153Z,10.60
2019-04-16T22:03:24.525Z,10.70
2019-04-16T22:05:53.392Z,10.70
2019-04-16T22:08:22.180Z,10.70
2019-04-16T22:10:50.944Z,10.60
2019-04-16T22:13:20.148Z,10.60
2019-04-16T22:15:48.689Z,10.60
2019-04-16T22:18:17.999Z,10.50
2019-04-16T22:20:46.791Z,10.50
2019-04-16T22:23:19.023Z,10.40
2019-04-16T22:25:45.965Z,10.40
2019-04-16T22:28:14.819Z,10.30
2019-04-16T22:30:43.603Z,10.10
2019-04-16T22:33:12.327Z,10.10
2019-04-16T22:35:42.058Z,10.00
2019-04-16T22:38:14.304Z,10.00
2019-04-16T22:40:45.372Z,9.90
2019-04-16T22:43:15.462Z,9.80
2019-04-16T22:45:52.082Z,9.80
2019-04-16T22:48:19.044Z,9.70
2019-04-16T22:50:47.838Z,9.60
2019-04-16T22:53:17.268Z,9.60
2019-04-16T22:55:46.698Z,9.60
2019-04-16T22:58:24.967Z,9.50
2019-04-16T23:00:55.698Z,9.40
2019-04-16T23:03:24.424Z,9.40
2019-04-16T23:05:53.253Z,9.40
2019-04-16T23:08:22.040Z,9.40
2019-04-16T23:10:52.066Z,9.20
2019-04-16T23:13:20.973Z,9.10
2019-04-16T23:15:49.805Z,9.10
2019-04-16T23:18:18.381Z,9.00
2019-04-16T23:20:47.167Z,9.00
2019-04-16T23:23:18.052Z,8.90
2019-04-16T23:25:46.095Z,8.90
2019-04-16T23:28:14.837Z,8.90
2019-04-16T23:30:43.601Z,8.80
2019-04-16T23:33:12.349Z,8.80
2019-04-16T23:35:44.313Z,8.70
2019-04-16T23:38:12.068Z,8.60
2019-04-16T23:40:43.922Z,8.60
2019-04-16T23:43:25.011Z,8.50
2019-04-16T23:46:11.589Z,8.50
2019-04-16T23:48:47.728Z,8.50
2019-04-16T23:51:22.266Z,8.60
2019-04-16T23:54:01.577Z,8.60
2019-04-16T23:56:34.652Z,8.50
2019-04-16T23:59:11.026Z,8.40
